sensor_id;sensor_type;location;lat;lon;timestamp;P1;durP1;ratioP1;P2;durP2;ratioP2
30998;SDS011;20549;50.042;8.968;2023-02-04T00:01:47;7.57;;;2.80;;
30998;SDS011;20549;50.042;8.968;2023-02-04T00:04:14;7.03;;;2.70;;
30998;SDS011;20549;50.042;8.968;2023-02-04T00:06:40;9.87;;;2.77;;
30998;SDS011;20549;50.042;8.968;2023-02-04T00:09:07;13.13;;;3.17;;
30998;SDS011;20549;50.042;8.968;2023-02-04T00:11:33;6.23;;;2.90;;
30998;SDS011;20549;50.042;8.968;2023-02-04T00:14:00;5.47;;;2.53;;
30998;SDS011;20549;50.042;8.968;2023-02-04T00:16:27;4.77;;;2.40;;
30998;SDS011;20549;50.042;8.968;2023-02-04T00:18:53;6.23;;;2.80;;
30998;SDS011;20549;50.042;8.968;2023-02-04T00:21:20;9.23;;;2.50;;
30998;SDS011;20549;50.042;8.968;2023-02-04T00:23:46;6.90;;;2.63;;
30998;SDS011;20549;50.042;8.968;2023-02-04T00:26:13;9.17;;;3.27;;
30998;SDS011;20549;50.042;8.968;2023-02-04T00:28:39;6.23;;;2.37;;
30998;SDS011;20549;50.042;8.968;2023-02-04T00:31:06;7.70;;;2.67;;
30998;SDS011;20549;50.042;8.968;2023-02-04T00:33:33;6.40;;;2.50;;
30998;SDS011;20549;50.042;8.968;2023-02-04T00:35:59;7.37;;;2.60;;
30998;SDS011;20549;50.042;8.968;2023-02-04T00:38:26;5.83;;;2.43;;
30998;SDS011;20549;50.042;8.968;2023-02-04T00:40:52;7.60;;;2.50;;
30998;SDS011;20549;50.042;8.968;2023-02-04T00:43:19;4.47;;;1.90;;
30998;SDS011;20549;50.042;8.968;2023-02-04T00:45:46;5.87;;;2.63;;
30998;SDS011;20549;50.042;8.968;2023-02-04T00:48:12;5.90;;;2.40;;
30998;SDS011;20549;50.042;8.968;2023-02-04T00:50:39;6.67;;;2.40;;
30998;SDS011;20549;50.042;8.968;2023-02-04T00:53:06;3.57;;;2.20;;
30998;SDS011;20549;50.042;8.968;2023-02-04T00:55:32;5.33;;;2.10;;
30998;SDS011;20549;50.042;8.968;2023-02-04T00:57:59;6.37;;;2.37;;
30998;SDS011;20549;50.042;8.968;2023-02-04T01:00:25;9.57;;;3.53;;
30998;SDS011;20549;50.042;8.968;2023-02-04T01:02:52;4.83;;;1.70;;
30998;SDS011;20549;50.042;8.968;2023-02-04T01:05:18;8.17;;;2.57;;
30998;SDS011;20549;50.042;8.968;2023-02-04T01:07:45;9.83;;;2.60;;
30998;SDS011;20549;50.042;8.968;2023-02-04T01:10:11;4.87;;;2.60;;
30998;SDS011;20549;50.042;8.968;2023-02-04T01:12:38;7.27;;;2.33;;
30998;SDS011;20549;50.042;8.968;2023-02-04T01:15:05;4.87;;;2.63;;
30998;SDS011;20549;50.042;8.968;2023-02-04T01:17:31;5.40;;;2.27;;
30998;SDS011;20549;50.042;8.968;2023-02-04T01:19:58;4.67;;;2.30;;
30998;SDS011;20549;50.042;8.968;2023-02-04T01:22:24;5.73;;;2.17;;
30998;SDS011;20549;50.042;8.968;2023-02-04T01:24:51;6.93;;;2.70;;
30998;SDS011;20549;50.042;8.968;2023-02-04T01:27:18;5.13;;;2.50;;
30998;SDS011;20549;50.042;8.968;2023-02-04T01:29:44;5.77;;;2.10;;
30998;SDS011;20549;50.042;8.968;2023-02-04T01:32:11;6.83;;;2.73;;
30998;SDS011;20549;50.042;8.968;2023-02-04T01:34:37;5.00;;;2.47;;
30998;SDS011;20549;50.042;8.968;2023-02-04T01:37:04;3.27;;;1.73;;
30998;SDS011;20549;50.042;8.968;2023-02-04T01:39:31;4.50;;;2.50;;
30998;SDS011;20549;50.042;8.968;2023-02-04T01:41:57;8.90;;;2.70;;
30998;SDS011;20549;50.042;8.968;2023-02-04T01:44:24;11.77;;;3.30;;
30998;SDS011;20549;50.042;8.968;2023-02-04T01:46:50;6.57;;;2.33;;
30998;SDS011;20549;50.042;8.968;2023-02-04T01:49:17;5.83;;;2.27;;
30998;SDS011;20549;50.042;8.968;2023-02-04T01:51:43;5.50;;;2.13;;
30998;SDS011;20549;50.042;8.968;2023-02-04T01:54:13;6.47;;;2.40;;
30998;SDS011;20549;50.042;8.968;2023-02-04T01:56:41;11.27;;;3.10;;
30998;SDS011;20549;50.042;8.968;2023-02-04T01:59:13;8.73;;;2.30;;
30998;SDS011;20549;50.042;8.968;2023-02-04T02:01:40;5.87;;;2.57;;
30998;SDS011;20549;50.042;8.968;2023-02-04T02:04:05;7.37;;;2.47;;
30998;SDS011;20549;50.042;8.968;2023-02-04T02:06:32;4.53;;;2.40;;
30998;SDS011;20549;50.042;8.968;2023-02-04T02:08:58;8.57;;;2.30;;
30998;SDS011;20549;50.042;8.968;2023-02-04T02:11:25;6.27;;;2.10;;
30998;SDS011;20549;50.042;8.968;2023-02-04T02:13:52;4.47;;;1.87;;
30998;SDS011;20549;50.042;8.968;2023-02-04T02:16:18;6.30;;;2.87;;
30998;SDS011;20549;50.042;8.968;2023-02-04T02:18:45;5.43;;;2.10;;
30998;SDS011;20549;50.042;8.968;2023-02-04T02:21:12;8.00;;;2.40;;
30998;SDS011;20549;50.042;8.968;2023-02-04T02:23:50;8.40;;;2.80;;
30998;SDS011;20549;50.042;8.968;2023-02-04T02:26:17;7.73;;;2.63;;
30998;SDS011;20549;50.042;8.968;2023-02-04T02:28:43;10.60;;;2.43;;
30998;SDS011;20549;50.042;8.968;2023-02-04T02:31:10;6.60;;;2.20;;
30998;SDS011;20549;50.042;8.968;2023-02-04T02:33:36;7.87;;;2.30;;
30998;SDS011;20549;50.042;8.968;2023-02-04T02:36:03;7.77;;;2.50;;
30998;SDS011;20549;50.042;8.968;2023-02-04T02:38:29;6.60;;;2.30;;
30998;SDS011;20549;50.042;8.968;2023-02-04T02:40:56;9.20;;;3.20;;
30998;SDS011;20549;50.042;8.968;2023-02-04T02:43:23;6.57;;;2.13;;
30998;SDS011;20549;50.042;8.968;2023-02-04T02:45:49;7.67;;;2.60;;
30998;SDS011;20549;50.042;8.968;2023-02-04T02:48:16;6.70;;;2.40;;
30998;SDS011;20549;50.042;8.968;2023-02-04T02:50:42;6.10;;;2.27;;
30998;SDS011;20549;50.042;8.968;2023-02-04T02:53:10;7.23;;;2.50;;
30998;SDS011;20549;50.042;8.968;2023-02-04T02:55:35;6.57;;;2.57;;
30998;SDS011;20549;50.042;8.968;2023-02-04T02:58:02;6.73;;;2.67;;
30998;SDS011;20549;50.042;8.968;2023-02-04T03:00:29;10.17;;;3.07;;
30998;SDS011;20549;50.042;8.968;2023-02-04T03:03:00;8.63;;;2.50;;
30998;SDS011;20549;50.042;8.968;2023-02-04T03:05:25;12.60;;;2.20;;
30998;SDS011;20549;50.042;8.968;2023-02-04T03:07:51;7.10;;;3.00;;
30998;SDS011;20549;50.042;8.968;2023-02-04T03:10:18;9.67;;;2.87;;
30998;SDS011;20549;50.042;8.968;2023-02-04T03:12:44;5.47;;;2.37;;
30998;SDS011;20549;50.042;8.968;2023-02-04T03:15:11;7.63;;;2.13;;
30998;SDS011;20549;50.042;8.968;2023-02-04T03:17:38;5.10;;;2.40;;
30998;SDS011;20549;50.042;8.968;2023-02-04T03:20:04;6.23;;;2.30;;
30998;SDS011;20549;50.042;8.968;2023-02-04T03:22:31;5.83;;;2.50;;
30998;SDS011;20549;50.042;8.968;2023-02-04T03:24:57;5.90;;;2.20;;
30998;SDS011;20549;50.042;8.968;2023-02-04T03:27:24;9.77;;;2.43;;
30998;SDS011;20549;50.042;8.968;2023-02-04T03:29:51;5.90;;;2.47;;
30998;SDS011;20549;50.042;8.968;2023-02-04T03:32:17;8.07;;;2.50;;
30998;SDS011;20549;50.042;8.968;2023-02-04T03:34:44;8.17;;;1.90;;
30998;SDS011;20549;50.042;8.968;2023-02-04T03:37:11;6.57;;;2.50;;
30998;SDS011;20549;50.042;8.968;2023-02-04T03:39:37;5.93;;;2.10;;
30998;SDS011;20549;50.042;8.968;2023-02-04T03:42:03;10.03;;;2.73;;
30998;SDS011;20549;50.042;8.968;2023-02-04T03:44:30;4.93;;;2.10;;
30998;SDS011;20549;50.042;8.968;2023-02-04T03:46:57;8.97;;;2.83;;
30998;SDS011;20549;50.042;8.968;2023-02-04T03:49:23;9.23;;;2.90;;
30998;SDS011;20549;50.042;8.968;2023-02-04T03:51:50;9.20;;;2.57;;
30998;SDS011;20549;50.042;8.968;2023-02-04T03:54:16;7.57;;;2.60;;
30998;SDS011;20549;50.042;8.968;2023-02-04T03:56:43;8.80;;;2.73;;
30998;SDS011;20549;50.042;8.968;2023-02-04T03:59:10;6.70;;;2.30;;
30998;SDS011;20549;50.042;8.968;2023-02-04T04:01:36;6.10;;;2.70;;
30998;SDS011;20549;50.042;8.968;2023-02-04T04:04:03;7.90;;;2.43;;
30998;SDS011;20549;50.042;8.968;2023-02-04T04:06:29;7.87;;;2.10;;
30998;SDS011;20549;50.042;8.968;2023-02-04T04:08:56;10.93;;;2.90;;
30998;SDS011;20549;50.042;8.968;2023-02-04T04:11:22;8.67;;;2.43;;
30998;SDS011;20549;50.042;8.968;2023-02-04T04:13:49;7.73;;;2.50;;
30998;SDS011;20549;50.042;8.968;2023-02-04T04:16:16;6.00;;;2.50;;
30998;SDS011;20549;50.042;8.968;2023-02-04T04:18:42;7.03;;;2.87;;
30998;SDS011;20549;50.042;8.968;2023-02-04T04:21:09;9.27;;;2.33;;
30998;SDS011;20549;50.042;8.968;2023-02-04T04:23:35;7.77;;;2.60;;
30998;SDS011;20549;50.042;8.968;2023-02-04T04:26:02;5.63;;;2.37;;
30998;SDS011;20549;50.042;8.968;2023-02-04T04:28:29;8.30;;;2.70;;
30998;SDS011;20549;50.042;8.968;2023-02-04T04:30:55;6.73;;;2.33;;
30998;SDS011;20549;50.042;8.968;2023-02-04T04:33:22;6.43;;;2.83;;
30998;SDS011;20549;50.042;8.968;2023-02-04T04:35:48;6.93;;;2.40;;
30998;SDS011;20549;50.042;8.968;2023-02-04T04:38:15;7.37;;;2.40;;
30998;SDS011;20549;50.042;8.968;2023-02-04T04:40:42;10.73;;;2.60;;
30998;SDS011;20549;50.042;8.968;2023-02-04T04:43:08;5.50;;;2.70;;
30998;SDS011;20549;50.042;8.968;2023-02-04T04:45:35;10.30;;;2.63;;
30998;SDS011;20549;50.042;8.968;2023-02-04T04:48:01;6.97;;;2.87;;
30998;SDS011;20549;50.042;8.968;2023-02-04T04:50:28;8.53;;;2.97;;
30998;SDS011;20549;50.042;8.968;2023-02-04T04:52:54;9.20;;;2.80;;
30998;SDS011;20549;50.042;8.968;2023-02-04T04:55:21;10.77;;;2.70;;
30998;SDS011;20549;50.042;8.968;2023-02-04T04:57:48;11.90;;;2.97;;
30998;SDS011;20549;50.042;8.968;2023-02-04T05:00:15;11.20;;;3.53;;
30998;SDS011;20549;50.042;8.968;2023-02-04T05:02:41;7.83;;;2.57;;
30998;SDS011;20549;50.042;8.968;2023-02-04T05:05:07;8.83;;;3.00;;
30998;SDS011;20549;50.042;8.968;2023-02-04T05:07:34;7.87;;;2.83;;
30998;SDS011;20549;50.042;8.968;2023-02-04T05:10:01;8.50;;;2.73;;
30998;SDS011;20549;50.042;8.968;2023-02-04T05:12:27;8.30;;;2.47;;
30998;SDS011;20549;50.042;8.968;2023-02-04T05:14:54;10.57;;;2.87;;
30998;SDS011;20549;50.042;8.968;2023-02-04T05:17:20;7.30;;;2.50;;
30998;SDS011;20549;50.042;8.968;2023-02-04T05:19:47;8.07;;;2.70;;
30998;SDS011;20549;50.042;8.968;2023-02-04T05:22:13;6.50;;;2.70;;
30998;SDS011;20549;50.042;8.968;2023-02-04T05:24:40;7.43;;;2.47;;
30998;SDS011;20549;50.042;8.968;2023-02-04T05:27:07;7.80;;;3.20;;
30998;SDS011;20549;50.042;8.968;2023-02-04T05:29:33;10.43;;;2.90;;
30998;SDS011;20549;50.042;8.968;2023-02-04T05:32:00;10.93;;;3.20;;
30998;SDS011;20549;50.042;8.968;2023-02-04T05:34:26;7.20;;;2.97;;
30998;SDS011;20549;50.042;8.968;2023-02-04T05:36:53;12.30;;;3.40;;
30998;SDS011;20549;50.042;8.968;2023-02-04T05:39:20;8.73;;;2.60;;
30998;SDS011;20549;50.042;8.968;2023-02-04T05:41:46;9.83;;;2.50;;
30998;SDS011;20549;50.042;8.968;2023-02-04T05:44:13;9.43;;;2.70;;
30998;SDS011;20549;50.042;8.968;2023-02-04T05:46:39;7.97;;;2.77;;
30998;SDS011;20549;50.042;8.968;2023-02-04T05:49:06;10.90;;;3.10;;
30998;SDS011;20549;50.042;8.968;2023-02-04T05:51:32;9.97;;;2.97;;
30998;SDS011;20549;50.042;8.968;2023-02-04T05:53:59;11.83;;;2.87;;
30998;SDS011;20549;50.042;8.968;2023-02-04T05:56:26;9.03;;;2.73;;
30998;SDS011;20549;50.042;8.968;2023-02-04T05:58:52;10.60;;;3.10;;
30998;SDS011;20549;50.042;8.968;2023-02-04T06:01:19;10.50;;;2.80;;
30998;SDS011;20549;50.042;8.968;2023-02-04T06:03:45;13.07;;;2.77;;
30998;SDS011;20549;50.042;8.968;2023-02-04T06:06:12;10.07;;;3.17;;
30998;SDS011;20549;50.042;8.968;2023-02-04T06:08:39;7.30;;;2.70;;
30998;SDS011;20549;50.042;8.968;2023-02-04T06:11:05;10.80;;;2.90;;
30998;SDS011;20549;50.042;8.968;2023-02-04T06:13:32;10.93;;;2.93;;
30998;SDS011;20549;50.042;8.968;2023-02-04T06:15:58;9.70;;;2.67;;
30998;SDS011;20549;50.042;8.968;2023-02-04T06:18:25;10.20;;;3.33;;
30998;SDS011;20549;50.042;8.968;2023-02-04T06:20:51;11.97;;;3.37;;
30998;SDS011;20549;50.042;8.968;2023-02-04T06:23:18;14.97;;;3.57;;
30998;SDS011;20549;50.042;8.968;2023-02-04T06:25:45;13.30;;;2.87;;
30998;SDS011;20549;50.042;8.968;2023-02-04T06:28:11;8.00;;;2.70;;
30998;SDS011;20549;50.042;8.968;2023-02-04T06:30:38;7.60;;;3.07;;
30998;SDS011;20549;50.042;8.968;2023-02-04T06:33:04;8.67;;;3.03;;
30998;SDS011;20549;50.042;8.968;2023-02-04T06:35:31;11.93;;;3.30;;
30998;SDS011;20549;50.042;8.968;2023-02-04T06:37:58;8.73;;;2.77;;
30998;SDS011;20549;50.042;8.968;2023-02-04T06:40:24;12.67;;;3.63;;
30998;SDS011;20549;50.042;8.968;2023-02-04T06:42:51;5.97;;;2.80;;
30998;SDS011;20549;50.042;8.968;2023-02-04T06:45:17;9.27;;;3.20;;
30998;SDS011;20549;50.042;8.968;2023-02-04T06:47:44;6.17;;;2.30;;
30998;SDS011;20549;50.042;8.968;2023-02-04T06:50:11;9.37;;;3.90;;
30998;SDS011;20549;50.042;8.968;2023-02-04T06:52:37;13.23;;;3.47;;
30998;SDS011;20549;50.042;8.968;2023-02-04T06:55:04;10.00;;;2.83;;
30998;SDS011;20549;50.042;8.968;2023-02-04T06:57:30;9.50;;;3.10;;
30998;SDS011;20549;50.042;8.968;2023-02-04T06:59:57;12.03;;;3.70;;
30998;SDS011;20549;50.042;8.968;2023-02-04T07:02:23;9.30;;;2.93;;
30998;SDS011;20549;50.042;8.968;2023-02-04T07:04:50;10.83;;;2.70;;
30998;SDS011;20549;50.042;8.968;2023-02-04T07:07:17;8.83;;;3.00;;
30998;SDS011;20549;50.042;8.968;2023-02-04T07:09:43;9.43;;;3.17;;
30998;SDS011;20549;50.042;8.968;2023-02-04T07:12:10;7.27;;;2.80;;
30998;SDS011;20549;50.042;8.968;2023-02-04T07:14:36;10.73;;;2.97;;
30998;SDS011;20549;50.042;8.968;2023-02-04T07:17:03;10.73;;;3.27;;
30998;SDS011;20549;50.042;8.968;2023-02-04T07:19:30;11.70;;;3.17;;
30998;SDS011;20549;50.042;8.968;2023-02-04T07:21:56;9.83;;;3.17;;
30998;SDS011;20549;50.042;8.968;2023-02-04T07:24:23;11.07;;;4.20;;
30998;SDS011;20549;50.042;8.968;2023-02-04T07:26:49;12.10;;;4.23;;
30998;SDS011;20549;50.042;8.968;2023-02-04T07:29:16;14.60;;;4.63;;
30998;SDS011;20549;50.042;8.968;2023-02-04T07:31:42;13.50;;;4.10;;
30998;SDS011;20549;50.042;8.968;2023-02-04T07:34:10;12.53;;;4.73;;
30998;SDS011;20549;50.042;8.968;2023-02-04T07:36:36;10.47;;;4.57;;
30998;SDS011;20549;50.042;8.968;2023-02-04T07:39:02;13.60;;;4.43;;
30998;SDS011;20549;50.042;8.968;2023-02-04T07:41:29;11.13;;;4.13;;
30998;SDS011;20549;50.042;8.968;2023-02-04T07:43:55;9.53;;;3.70;;
30998;SDS011;20549;50.042;8.968;2023-02-04T07:46:22;7.80;;;3.33;;
30998;SDS011;20549;50.042;8.968;2023-02-04T07:48:49;9.20;;;3.33;;
30998;SDS011;20549;50.042;8.968;2023-02-04T07:51:15;10.60;;;3.13;;
30998;SDS011;20549;50.042;8.968;2023-02-04T07:53:42;10.90;;;3.63;;
30998;SDS011;20549;50.042;8.968;2023-02-04T07:56:08;10.10;;;3.63;;
30998;SDS011;20549;50.042;8.968;2023-02-04T07:58:35;10.47;;;3.73;;
30998;SDS011;20549;50.042;8.968;2023-02-04T08:01:02;9.10;;;2.57;;
30998;SDS011;20549;50.042;8.968;2023-02-04T08:03:28;12.37;;;3.67;;
30998;SDS011;20549;50.042;8.968;2023-02-04T08:05:55;7.57;;;2.83;;
30998;SDS011;20549;50.042;8.968;2023-02-04T08:08:21;11.30;;;3.53;;
30998;SDS011;20549;50.042;8.968;2023-02-04T08:10:48;11.93;;;3.83;;
30998;SDS011;20549;50.042;8.968;2023-02-04T08:13:14;9.27;;;3.60;;
30998;SDS011;20549;50.042;8.968;2023-02-04T08:15:41;11.80;;;3.80;;
30998;SDS011;20549;50.042;8.968;2023-02-04T08:18:08;12.53;;;3.30;;
30998;SDS011;20549;50.042;8.968;2023-02-04T08:20:34;10.63;;;3.37;;
30998;SDS011;20549;50.042;8.968;2023-02-04T08:23:01;11.97;;;4.00;;
30998;SDS011;20549;50.042;8.968;2023-02-04T08:25:27;14.20;;;4.50;;
30998;SDS011;20549;50.042;8.968;2023-02-04T08:27:54;15.30;;;4.90;;
30998;SDS011;20549;50.042;8.968;2023-02-04T08:30:21;11.03;;;4.43;;
30998;SDS011;20549;50.042;8.968;2023-02-04T08:32:47;10.70;;;3.93;;
30998;SDS011;20549;50.042;8.968;2023-02-04T08:35:14;11.60;;;3.83;;
30998;SDS011;20549;50.042;8.968;2023-02-04T08:37:40;11.30;;;4.93;;
30998;SDS011;20549;50.042;8.968;2023-02-04T08:40:07;10.17;;;4.47;;
30998;SDS011;20549;50.042;8.968;2023-02-04T08:42:33;11.97;;;4.47;;
30998;SDS011;20549;50.042;8.968;2023-02-04T08:45:00;7.73;;;2.97;;
30998;SDS011;20549;50.042;8.968;2023-02-04T08:47:27;11.80;;;4.30;;
30998;SDS011;20549;50.042;8.968;2023-02-04T08:49:53;9.70;;;3.03;;
30998;SDS011;20549;50.042;8.968;2023-02-04T08:52:20;11.87;;;3.50;;
30998;SDS011;20549;50.042;8.968;2023-02-04T08:54:46;13.10;;;4.33;;
30998;SDS011;20549;50.042;8.968;2023-02-04T08:57:13;13.10;;;3.73;;
30998;SDS011;20549;50.042;8.968;2023-02-04T08:59:40;8.53;;;3.47;;
30998;SDS011;20549;50.042;8.968;2023-02-04T09:02:07;10.17;;;3.07;;
30998;SDS011;20549;50.042;8.968;2023-02-04T09:04:33;7.70;;;2.87;;
30998;SDS011;20549;50.042;8.968;2023-02-04T09:06:59;8.67;;;3.03;;
30998;SDS011;20549;50.042;8.968;2023-02-04T09:09:26;13.07;;;3.33;;
30998;SDS011;20549;50.042;8.968;2023-02-04T09:11:53;7.07;;;2.77;;
30998;SDS011;20549;50.042;8.968;2023-02-04T09:14:19;5.83;;;2.83;;
30998;SDS011;20549;50.042;8.968;2023-02-04T09:16:46;8.87;;;3.03;;
30998;SDS011;20549;50.042;8.968;2023-02-04T09:19:12;9.27;;;2.90;;
30998;SDS011;20549;50.042;8.968;2023-02-04T09:21:39;9.80;;;2.93;;
30998;SDS011;20549;50.042;8.968;2023-02-04T09:24:05;9.33;;;3.37;;
30998;SDS011;20549;50.042;8.968;2023-02-04T09:26:32;7.77;;;3.20;;
30998;SDS011;20549;50.042;8.968;2023-02-04T09:28:59;9.53;;;3.40;;
30998;SDS011;20549;50.042;8.968;2023-02-04T09:31:25;9.30;;;3.02;;
30998;SDS011;20549;50.042;8.968;2023-02-04T09:33:52;10.32;;;3.02;;
30998;SDS011;20549;50.042;8.968;2023-02-04T09:36:18;8.35;;;3.33;;
30998;SDS011;20549;50.042;8.968;2023-02-04T09:38:45;7.72;;;2.70;;
30998;SDS011;20549;50.042;8.968;2023-02-04T09:41:12;6.47;;;3.02;;
30998;SDS011;20549;50.042;8.968;2023-02-04T09:43:40;7.87;;;2.55;;
30998;SDS011;20549;50.042;8.968;2023-02-04T09:46:06;6.45;;;2.12;;
30998;SDS011;20549;50.042;8.968;2023-02-04T09:48:31;8.18;;;2.40;;
30998;SDS011;20549;50.042;8.968;2023-02-04T09:51:05;6.90;;;2.47;;
30998;SDS011;20549;50.042;8.968;2023-02-04T09:53:31;5.70;;;2.57;;
30998;SDS011;20549;50.042;8.968;2023-02-04T09:55:57;10.43;;;3.10;;
30998;SDS011;20549;50.042;8.968;2023-02-04T09:58:24;7.15;;;2.87;;
30998;SDS011;20549;50.042;8.968;2023-02-04T10:00:55;9.58;;;3.42;;
30998;SDS011;20549;50.042;8.968;2023-02-04T10:03:18;6.62;;;2.35;;
30998;SDS011;20549;50.042;8.968;2023-02-04T10:05:44;6.93;;;2.60;;
30998;SDS011;20549;50.042;8.968;2023-02-04T10:08:14;7.97;;;2.80;;
30998;SDS011;20549;50.042;8.968;2023-02-04T10:10:40;6.55;;;2.50;;
30998;SDS011;20549;50.042;8.968;2023-02-04T10:13:07;7.28;;;2.45;;
30998;SDS011;20549;50.042;8.968;2023-02-04T10:15:33;4.53;;;2.12;;
30998;SDS011;20549;50.042;8.968;2023-02-04T10:18:04;6.85;;;2.50;;
30998;SDS011;20549;50.042;8.968;2023-02-04T10:20:29;10.10;;;2.83;;
30998;SDS011;20549;50.042;8.968;2023-02-04T10:22:56;5.80;;;2.58;;
30998;SDS011;20549;50.042;8.968;2023-02-04T10:25:23;6.90;;;2.15;;
30998;SDS011;20549;50.042;8.968;2023-02-04T10:27:58;6.62;;;2.58;;
30998;SDS011;20549;50.042;8.968;2023-02-04T10:30:22;6.58;;;2.62;;
30998;SDS011;20549;50.042;8.968;2023-02-04T10:32:48;7.03;;;2.77;;
30998;SDS011;20549;50.042;8.968;2023-02-04T10:35:15;6.00;;;2.02;;
30998;SDS011;20549;50.042;8.968;2023-02-04T10:37:41;7.28;;;2.25;;
30998;SDS011;20549;50.042;8.968;2023-02-04T10:40:27;8.93;;;2.52;;
30998;SDS011;20549;50.042;8.968;2023-02-04T10:42:53;5.12;;;1.80;;
30998;SDS011;20549;50.042;8.968;2023-02-04T10:45:23;6.45;;;1.90;;
30998;SDS011;20549;50.042;8.968;2023-02-04T10:47:49;5.90;;;2.30;;
30998;SDS011;20549;50.042;8.968;2023-02-04T10:50:23;4.83;;;2.00;;
30998;SDS011;20549;50.042;8.968;2023-02-04T10:52:50;6.10;;;2.42;;
30998;SDS011;20549;50.042;8.968;2023-02-04T10:55:16;5.70;;;1.90;;
30998;SDS011;20549;50.042;8.968;2023-02-04T10:57:42;5.55;;;1.95;;
30998;SDS011;20549;50.042;8.968;2023-02-04T11:00:18;4.20;;;1.70;;
30998;SDS011;20549;50.042;8.968;2023-02-04T11:02:48;7.10;;;1.95;;
30998;SDS011;20549;50.042;8.968;2023-02-04T11:05:17;6.37;;;2.10;;
30998;SDS011;20549;50.042;8.968;2023-02-04T11:07:43;5.97;;;2.15;;
30998;SDS011;20549;50.042;8.968;2023-02-04T11:10:11;6.60;;;1.90;;
30998;SDS011;20549;50.042;8.968;2023-02-04T11:12:42;7.23;;;1.97;;
30998;SDS011;20549;50.042;8.968;2023-02-04T11:15:05;4.97;;;1.83;;
30998;SDS011;20549;50.042;8.968;2023-02-04T11:17:33;4.05;;;2.10;;
30998;SDS011;20549;50.042;8.968;2023-02-04T11:19:58;5.92;;;2.02;;
30998;SDS011;20549;50.042;8.968;2023-02-04T11:22:42;6.90;;;2.17;;
30998;SDS011;20549;50.042;8.968;2023-02-04T11:28:12;6.17;;;2.12;;
30998;SDS011;20549;50.042;8.968;2023-02-04T11:30:57;4.67;;;1.93;;
30998;SDS011;20549;50.042;8.968;2023-02-04T11:33:21;6.60;;;1.90;;
30998;SDS011;20549;50.042;8.968;2023-02-04T11:36:08;7.55;;;2.58;;
30998;SDS011;20549;50.042;8.968;2023-02-04T11:38:30;4.67;;;1.97;;
30998;SDS011;20549;50.042;8.968;2023-02-04T11:40:56;5.83;;;2.63;;
30998;SDS011;20549;50.042;8.968;2023-02-04T11:43:23;5.60;;;2.30;;
30998;SDS011;20549;50.042;8.968;2023-02-04T11:45:59;5.70;;;2.22;;
30998;SDS011;20549;50.042;8.968;2023-02-04T11:48:19;6.42;;;2.45;;
30998;SDS011;20549;50.042;8.968;2023-02-04T11:50:55;4.30;;;2.10;;
30998;SDS011;20549;50.042;8.968;2023-02-04T11:53:27;4.87;;;2.00;;
30998;SDS011;20549;50.042;8.968;2023-02-04T11:55:50;5.10;;;2.33;;
30998;SDS011;20549;50.042;8.968;2023-02-04T11:58:18;6.23;;;2.47;;
30998;SDS011;20549;50.042;8.968;2023-02-04T12:00:43;11.60;;;3.63;;
30998;SDS011;20549;50.042;8.968;2023-02-04T12:03:26;5.87;;;2.13;;
30998;SDS011;20549;50.042;8.968;2023-02-04T12:05:52;6.40;;;2.07;;
30998;SDS011;20549;50.042;8.968;2023-02-04T12:11:08;4.37;;;2.00;;
30998;SDS011;20549;50.042;8.968;2023-02-04T12:13:32;5.77;;;1.97;;
30998;SDS011;20549;50.042;8.968;2023-02-04T12:16:00;12.00;;;2.70;;
30998;SDS011;20549;50.042;8.968;2023-02-04T12:18:29;6.78;;;1.72;;
30998;SDS011;20549;50.042;8.968;2023-02-04T12:20:55;4.67;;;1.90;;
30998;SDS011;20549;50.042;8.968;2023-02-04T12:23:22;7.08;;;1.75;;
30998;SDS011;20549;50.042;8.968;2023-02-04T12:25:48;4.58;;;1.87;;
30998;SDS011;20549;50.042;8.968;2023-02-04T12:28:15;6.67;;;2.27;;
30998;SDS011;20549;50.042;8.968;2023-02-04T12:30:41;5.03;;;2.07;;
30998;SDS011;20549;50.042;8.968;2023-02-04T12:33:08;7.97;;;2.70;;
30998;SDS011;20549;50.042;8.968;2023-02-04T12:35:34;5.00;;;1.77;;
30998;SDS011;20549;50.042;8.968;2023-02-04T12:38:01;7.35;;;2.08;;
30998;SDS011;20549;50.042;8.968;2023-02-04T12:40:28;6.25;;;2.02;;
30998;SDS011;20549;50.042;8.968;2023-02-04T12:42:54;6.50;;;2.08;;
30998;SDS011;20549;50.042;8.968;2023-02-04T12:45:21;5.70;;;1.90;;
30998;SDS011;20549;50.042;8.968;2023-02-04T12:47:47;5.15;;;1.82;;
30998;SDS011;20549;50.042;8.968;2023-02-04T12:50:15;6.83;;;2.87;;
30998;SDS011;20549;50.042;8.968;2023-02-04T12:52:40;3.45;;;1.70;;
30998;SDS011;20549;50.042;8.968;2023-02-04T12:55:07;4.03;;;1.60;;
30998;SDS011;20549;50.042;8.968;2023-02-04T12:57:34;4.65;;;2.05;;
30998;SDS011;20549;50.042;8.968;2023-02-04T13:00:00;4.67;;;1.80;;
30998;SDS011;20549;50.042;8.968;2023-02-04T13:02:27;2.35;;;1.80;;
30998;SDS011;20549;50.042;8.968;2023-02-04T13:04:53;7.00;;;2.67;;
30998;SDS011;20549;50.042;8.968;2023-02-04T13:07:20;6.08;;;2.65;;
30998;SDS011;20549;50.042;8.968;2023-02-04T13:09:47;8.03;;;2.13;;
30998;SDS011;20549;50.042;8.968;2023-02-04T13:12:13;5.67;;;1.67;;
30998;SDS011;20549;50.042;8.968;2023-02-04T13:14:40;6.92;;;2.22;;
30998;SDS011;20549;50.042;8.968;2023-02-04T13:17:06;5.60;;;2.08;;
30998;SDS011;20549;50.042;8.968;2023-02-04T13:19:33;3.52;;;1.75;;
30998;SDS011;20549;50.042;8.968;2023-02-04T13:22:00;5.22;;;1.82;;
30998;SDS011;20549;50.042;8.968;2023-02-04T13:24:26;4.97;;;2.33;;
30998;SDS011;20549;50.042;8.968;2023-02-04T13:26:53;5.03;;;2.10;;
30998;SDS011;20549;50.042;8.968;2023-02-04T13:29:19;4.67;;;2.37;;
30998;SDS011;20549;50.042;8.968;2023-02-04T13:31:46;6.03;;;2.20;;
30998;SDS011;20549;50.042;8.968;2023-02-04T13:34:12;6.25;;;2.37;;
30998;SDS011;20549;50.042;8.968;2023-02-04T13:36:39;5.58;;;1.77;;
30998;SDS011;20549;50.042;8.968;2023-02-04T13:39:06;5.30;;;1.90;;
30998;SDS011;20549;50.042;8.968;2023-02-04T13:41:32;4.07;;;1.63;;
30998;SDS011;20549;50.042;8.968;2023-02-04T13:43:59;5.03;;;1.90;;
30998;SDS011;20549;50.042;8.968;2023-02-04T13:46:25;5.87;;;2.00;;
30998;SDS011;20549;50.042;8.968;2023-02-04T13:48:52;5.67;;;2.08;;
30998;SDS011;20549;50.042;8.968;2023-02-04T13:51:19;8.78;;;2.20;;
30998;SDS011;20549;50.042;8.968;2023-02-04T13:53:45;8.20;;;2.52;;
30998;SDS011;20549;50.042;8.968;2023-02-04T13:56:12;4.97;;;2.08;;
30998;SDS011;20549;50.042;8.968;2023-02-04T13:58:38;6.58;;;2.35;;
30998;SDS011;20549;50.042;8.968;2023-02-04T14:01:05;5.83;;;2.00;;
30998;SDS011;20549;50.042;8.968;2023-02-04T14:03:32;5.00;;;2.00;;
30998;SDS011;20549;50.042;8.968;2023-02-04T14:05:58;4.40;;;1.90;;
30998;SDS011;20549;50.042;8.968;2023-02-04T14:08:25;3.50;;;2.03;;
30998;SDS011;20549;50.042;8.968;2023-02-04T14:10:51;6.40;;;2.27;;
30998;SDS011;20549;50.042;8.968;2023-02-04T14:13:18;4.27;;;2.50;;
30998;SDS011;20549;50.042;8.968;2023-02-04T14:15:44;4.83;;;1.60;;
30998;SDS011;20549;50.042;8.968;2023-02-04T14:18:11;5.85;;;1.92;;
30998;SDS011;20549;50.042;8.968;2023-02-04T14:20:38;3.17;;;1.90;;
30998;SDS011;20549;50.042;8.968;2023-02-04T14:23:04;5.90;;;2.10;;
30998;SDS011;20549;50.042;8.968;2023-02-04T14:25:31;6.40;;;2.00;;
30998;SDS011;20549;50.042;8.968;2023-02-04T14:27:57;6.00;;;1.97;;
30998;SDS011;20549;50.042;8.968;2023-02-04T14:30:25;4.47;;;2.37;;
30998;SDS011;20549;50.042;8.968;2023-02-04T14:32:51;4.57;;;1.77;;
30998;SDS011;20549;50.042;8.968;2023-02-04T14:35:17;3.87;;;2.00;;
30998;SDS011;20549;50.042;8.968;2023-02-04T14:37:44;7.33;;;2.10;;
30998;SDS011;20549;50.042;8.968;2023-02-04T14:40:11;6.17;;;1.97;;
30998;SDS011;20549;50.042;8.968;2023-02-04T14:42:37;6.53;;;2.40;;
30998;SDS011;20549;50.042;8.968;2023-02-04T14:45:04;2.80;;;1.57;;
30998;SDS011;20549;50.042;8.968;2023-02-04T14:47:31;4.67;;;1.70;;
30998;SDS011;20549;50.042;8.968;2023-02-04T14:49:57;4.10;;;1.90;;